sensor_id;sensor_type;location;lat;lon;timestamp;P1;durP1;ratioP1;P2;durP2;ratioP2
84989;SDS011;75307;53.836;10.476;2024-01-07T00:01:24;3.13;;;1.38;;
84989;SDS011;75307;53.836;10.476;2024-01-07T00:03:26;4.68;;;1.30;;
84989;SDS011;75307;53.836;10.476;2024-01-07T00:05:28;3.55;;;0.98;;
84989;SDS011;75307;53.836;10.476;2024-01-07T00:07:31;2.22;;;1.10;;
84989;SDS011;75307;53.836;10.476;2024-01-07T00:09:32;5.50;;;1.00;;
84989;SDS011;75307;53.836;10.476;2024-01-07T00:11:34;1.83;;;0.80;;
84989;SDS011;75307;53.836;10.476;2024-01-07T00:13:35;1.33;;;0.70;;
84989;SDS011;75307;53.836;10.476;2024-01-07T00:15:37;2.95;;;1.10;;
84989;SDS011;75307;53.836;10.476;2024-01-07T00:17:38;1.58;;;1.17;;
84989;SDS011;75307;53.836;10.476;2024-01-07T00:19:40;4.97;;;1.85;;
84989;SDS011;75307;53.836;10.476;2024-01-07T00:21:42;3.38;;;1.77;;
84989;SDS011;75307;53.836;10.476;2024-01-07T00:23:45;2.00;;;1.17;;
84989;SDS011;75307;53.836;10.476;2024-01-07T00:25:46;3.55;;;0.77;;
84989;SDS011;75307;53.836;10.476;2024-01-07T00:27:47;2.13;;;1.10;;
84989;SDS011;75307;53.836;10.476;2024-01-07T00:29:50;3.08;;;1.23;;
84989;SDS011;75307;53.836;10.476;2024-01-07T00:31:52;2.20;;;0.80;;
84989;SDS011;75307;53.836;10.476;2024-01-07T00:33:54;3.20;;;1.58;;
84989;SDS011;75307;53.836;10.476;2024-01-07T00:35:57;3.03;;;1.45;;
84989;SDS011;75307;53.836;10.476;2024-01-07T00:37:59;1.63;;;0.90;;
84989;SDS011;75307;53.836;10.476;2024-01-07T00:40:02;2.70;;;1.30;;
84989;SDS011;75307;53.836;10.476;2024-01-07T00:42:04;3.03;;;1.25;;
84989;SDS011;75307;53.836;10.476;2024-01-07T00:44:06;2.85;;;1.10;;
84989;SDS011;75307;53.836;10.476;2024-01-07T00:46:07;3.10;;;1.13;;
84989;SDS011;75307;53.836;10.476;2024-01-07T00:48:09;3.08;;;1.35;;
84989;SDS011;75307;53.836;10.476;2024-01-07T00:50:10;1.90;;;0.80;;
84989;SDS011;75307;53.836;10.476;2024-01-07T00:52:12;3.10;;;0.98;;
84989;SDS011;75307;53.836;10.476;2024-01-07T00:54:14;2.50;;;1.58;;
84989;SDS011;75307;53.836;10.476;2024-01-07T00:56:17;2.35;;;1.10;;
84989;SDS011;75307;53.836;10.476;2024-01-07T00:58:18;1.55;;;1.30;;
84989;SDS011;75307;53.836;10.476;2024-01-07T01:00:20;2.25;;;1.00;;
84989;SDS011;75307;53.836;10.476;2024-01-07T01:02:22;3.28;;;1.83;;
84989;SDS011;75307;53.836;10.476;2024-01-07T01:04:24;2.33;;;1.08;;
84989;SDS011;75307;53.836;10.476;2024-01-07T01:06:25;2.13;;;1.20;;
84989;SDS011;75307;53.836;10.476;2024-01-07T01:08:27;1.83;;;1.25;;
84989;SDS011;75307;53.836;10.476;2024-01-07T01:10:29;3.58;;;1.50;;
84989;SDS011;75307;53.836;10.476;2024-01-07T01:12:32;2.42;;;0.88;;
84989;SDS011;75307;53.836;10.476;2024-01-07T01:14:33;1.60;;;0.73;;
84989;SDS011;75307;53.836;10.476;2024-01-07T01:16:35;2.65;;;0.90;;
84989;SDS011;75307;53.836;10.476;2024-01-07T01:18:37;2.40;;;0.70;;
84989;SDS011;75307;53.836;10.476;2024-01-07T01:20:37;1.73;;;0.80;;
84989;SDS011;75307;53.836;10.476;2024-01-07T01:22:39;1.95;;;0.77;;
84989;SDS011;75307;53.836;10.476;2024-01-07T01:24:41;3.58;;;1.02;;
84989;SDS011;75307;53.836;10.476;2024-01-07T01:26:43;1.88;;;1.15;;
84989;SDS011;75307;53.836;10.476;2024-01-07T01:28:46;3.33;;;0.80;;
84989;SDS011;75307;53.836;10.476;2024-01-07T01:30:47;2.15;;;0.90;;
84989;SDS011;75307;53.836;10.476;2024-01-07T01:32:49;1.50;;;1.10;;
84989;SDS011;75307;53.836;10.476;2024-01-07T01:34:51;1.55;;;0.90;;
84989;SDS011;75307;53.836;10.476;2024-01-07T01:36:52;2.67;;;1.40;;
84989;SDS011;75307;53.836;10.476;2024-01-07T01:38:54;1.45;;;0.63;;
84989;SDS011;75307;53.836;10.476;2024-01-07T01:40:56;2.25;;;0.63;;
84989;SDS011;75307;53.836;10.476;2024-01-07T01:42:57;2.72;;;1.13;;
84989;SDS011;75307;53.836;10.476;2024-01-07T01:45:00;2.28;;;1.52;;
84989;SDS011;75307;53.836;10.476;2024-01-07T01:47:02;3.10;;;0.60;;
84989;SDS011;75307;53.836;10.476;2024-01-07T01:49:06;2.10;;;1.02;;
84989;SDS011;75307;53.836;10.476;2024-01-07T01:51:08;2.28;;;0.70;;
84989;SDS011;75307;53.836;10.476;2024-01-07T01:53:11;2.17;;;0.60;;
84989;SDS011;75307;53.836;10.476;2024-01-07T01:55:12;1.95;;;1.05;;
84989;SDS011;75307;53.836;10.476;2024-01-07T01:57:15;4.05;;;0.73;;
84989;SDS011;75307;53.836;10.476;2024-01-07T01:59:20;1.98;;;0.63;;
84989;SDS011;75307;53.836;10.476;2024-01-07T02:01:24;1.35;;;0.93;;
84989;SDS011;75307;53.836;10.476;2024-01-07T02:03:26;2.15;;;0.65;;
84989;SDS011;75307;53.836;10.476;2024-01-07T02:05:27;3.08;;;1.05;;
84989;SDS011;75307;53.836;10.476;2024-01-07T02:07:30;1.50;;;0.70;;
84989;SDS011;75307;53.836;10.476;2024-01-07T02:09:31;1.67;;;0.95;;
84989;SDS011;75307;53.836;10.476;2024-01-07T02:11:33;3.78;;;0.90;;
84989;SDS011;75307;53.836;10.476;2024-01-07T02:13:33;2.28;;;1.60;;
84989;SDS011;75307;53.836;10.476;2024-01-07T02:15:35;2.65;;;1.58;;
84989;SDS011;75307;53.836;10.476;2024-01-07T02:17:38;2.88;;;1.35;;
84989;SDS011;75307;53.836;10.476;2024-01-07T02:19:40;1.77;;;1.05;;
84989;SDS011;75307;53.836;10.476;2024-01-07T02:21:42;3.58;;;0.63;;
84989;SDS011;75307;53.836;10.476;2024-01-07T02:23:44;2.75;;;0.88;;
84989;SDS011;75307;53.836;10.476;2024-01-07T02:25:47;5.75;;;1.55;;
84989;SDS011;75307;53.836;10.476;2024-01-07T02:27:48;2.30;;;0.70;;
84989;SDS011;75307;53.836;10.476;2024-01-07T02:29:50;1.55;;;1.17;;
84989;SDS011;75307;53.836;10.476;2024-01-07T02:31:52;2.67;;;1.00;;
84989;SDS011;75307;53.836;10.476;2024-01-07T02:33:54;1.60;;;1.23;;
84989;SDS011;75307;53.836;10.476;2024-01-07T02:35:54;1.70;;;0.80;;
84989;SDS011;75307;53.836;10.476;2024-01-07T02:37:56;4.57;;;0.90;;
84989;SDS011;75307;53.836;10.476;2024-01-07T02:39:58;4.53;;;1.20;;
84989;SDS011;75307;53.836;10.476;2024-01-07T02:42:01;1.73;;;1.10;;
84989;SDS011;75307;53.836;10.476;2024-01-07T02:44:03;2.92;;;1.40;;
84989;SDS011;75307;53.836;10.476;2024-01-07T02:46:04;1.60;;;1.13;;
84989;SDS011;75307;53.836;10.476;2024-01-07T02:48:06;1.77;;;0.80;;
84989;SDS011;75307;53.836;10.476;2024-01-07T02:50:08;2.88;;;1.33;;
84989;SDS011;75307;53.836;10.476;2024-01-07T02:52:10;1.10;;;0.52;;
84989;SDS011;75307;53.836;10.476;2024-01-07T02:54:12;2.53;;;0.57;;
84989;SDS011;75307;53.836;10.476;2024-01-07T02:56:14;2.90;;;0.82;;
84989;SDS011;75307;53.836;10.476;2024-01-07T02:58:17;2.90;;;1.30;;
84989;SDS011;75307;53.836;10.476;2024-01-07T03:00:18;2.42;;;1.35;;
84989;SDS011;75307;53.836;10.476;2024-01-07T03:02:20;3.25;;;1.38;;
84989;SDS011;75307;53.836;10.476;2024-01-07T03:04:22;3.42;;;1.15;;
84989;SDS011;75307;53.836;10.476;2024-01-07T03:06:26;2.88;;;0.63;;
84989;SDS011;75307;53.836;10.476;2024-01-07T03:08:27;2.78;;;1.55;;
84989;SDS011;75307;53.836;10.476;2024-01-07T03:10:29;2.22;;;1.30;;
84989;SDS011;75307;53.836;10.476;2024-01-07T03:12:31;1.33;;;0.65;;
84989;SDS011;75307;53.836;10.476;2024-01-07T03:14:33;2.13;;;1.40;;
84989;SDS011;75307;53.836;10.476;2024-01-07T03:16:35;5.38;;;1.30;;
84989;SDS011;75307;53.836;10.476;2024-01-07T03:18:36;1.88;;;1.20;;
84989;SDS011;75307;53.836;10.476;2024-01-07T03:20:38;2.13;;;0.82;;
84989;SDS011;75307;53.836;10.476;2024-01-07T03:22:39;1.45;;;0.63;;
84989;SDS011;75307;53.836;10.476;2024-01-07T03:24:41;1.58;;;0.57;;
84989;SDS011;75307;53.836;10.476;2024-01-07T03:26:43;2.60;;;1.30;;
84989;SDS011;75307;53.836;10.476;2024-01-07T03:28:44;2.13;;;0.82;;
84989;SDS011;75307;53.836;10.476;2024-01-07T03:30:47;3.17;;;1.20;;
84989;SDS011;75307;53.836;10.476;2024-01-07T03:32:49;2.08;;;0.60;;
84989;SDS011;75307;53.836;10.476;2024-01-07T03:34:51;2.20;;;0.90;;
84989;SDS011;75307;53.836;10.476;2024-01-07T03:36:53;2.85;;;0.77;;
84989;SDS011;75307;53.836;10.476;2024-01-07T03:38:54;1.92;;;0.77;;
84989;SDS011;75307;53.836;10.476;2024-01-07T03:40:56;1.27;;;0.60;;
84989;SDS011;75307;53.836;10.476;2024-01-07T03:42:58;2.65;;;0.98;;
84989;SDS011;75307;53.836;10.476;2024-01-07T03:44:59;2.13;;;1.20;;
84989;SDS011;75307;53.836;10.476;2024-01-07T03:47:02;2.35;;;1.38;;
84989;SDS011;75307;53.836;10.476;2024-01-07T03:49:04;2.22;;;0.82;;
84989;SDS011;75307;53.836;10.476;2024-01-07T03:51:06;2.22;;;1.13;;
84989;SDS011;75307;53.836;10.476;2024-01-07T03:53:08;1.92;;;0.73;;
84989;SDS011;75307;53.836;10.476;2024-01-07T03:55:10;1.50;;;0.70;;
84989;SDS011;75307;53.836;10.476;2024-01-07T03:57:12;1.55;;;0.60;;
84989;SDS011;75307;53.836;10.476;2024-01-07T03:59:14;1.85;;;1.00;;
84989;SDS011;75307;53.836;10.476;2024-01-07T04:01:16;2.45;;;0.65;;
84989;SDS011;75307;53.836;10.476;2024-01-07T04:03:19;1.70;;;0.73;;
84989;SDS011;75307;53.836;10.476;2024-01-07T04:05:21;1.45;;;0.60;;
84989;SDS011;75307;53.836;10.476;2024-01-07T04:07:23;2.08;;;0.52;;
84989;SDS011;75307;53.836;10.476;2024-01-07T04:09:23;2.03;;;0.93;;
84989;SDS011;75307;53.836;10.476;2024-01-07T04:11:25;2.00;;;1.00;;
84989;SDS011;75307;53.836;10.476;2024-01-07T04:13:26;1.67;;;0.60;;
84989;SDS011;75307;53.836;10.476;2024-01-07T04:15:27;2.50;;;1.10;;
84989;SDS011;75307;53.836;10.476;2024-01-07T04:17:29;2.42;;;1.20;;
84989;SDS011;75307;53.836;10.476;2024-01-07T04:19:32;2.63;;;1.17;;
84989;SDS011;75307;53.836;10.476;2024-01-07T04:21:34;2.28;;;0.82;;
84989;SDS011;75307;53.836;10.476;2024-01-07T04:23:36;1.95;;;0.88;;
84989;SDS011;75307;53.836;10.476;2024-01-07T04:25:39;1.77;;;0.60;;
84989;SDS011;75307;53.836;10.476;2024-01-07T04:27:42;1.67;;;0.63;;
84989;SDS011;75307;53.836;10.476;2024-01-07T04:29:44;1.55;;;1.08;;
84989;SDS011;75307;53.836;10.476;2024-01-07T04:31:46;1.90;;;1.00;;
84989;SDS011;75307;53.836;10.476;2024-01-07T04:33:47;1.73;;;1.05;;
84989;SDS011;75307;53.836;10.476;2024-01-07T04:35:50;3.65;;;1.10;;
84989;SDS011;75307;53.836;10.476;2024-01-07T04:37:52;1.88;;;0.73;;
84989;SDS011;75307;53.836;10.476;2024-01-07T04:39:54;1.58;;;0.70;;
84989;SDS011;75307;53.836;10.476;2024-01-07T04:41:54;1.98;;;1.30;;
84989;SDS011;75307;53.836;10.476;2024-01-07T04:43:56;2.67;;;0.90;;
84989;SDS011;75307;53.836;10.476;2024-01-07T04:45:58;1.63;;;0.63;;
84989;SDS011;75307;53.836;10.476;2024-01-07T04:47:59;1.83;;;1.13;;
84989;SDS011;75307;53.836;10.476;2024-01-07T04:50:02;2.83;;;1.05;;
84989;SDS011;75307;53.836;10.476;2024-01-07T04:52:06;2.58;;;1.10;;
84989;SDS011;75307;53.836;10.476;2024-01-07T04:54:07;3.13;;;0.63;;
84989;SDS011;75307;53.836;10.476;2024-01-07T04:56:09;1.65;;;1.00;;
84989;SDS011;75307;53.836;10.476;2024-01-07T04:58:12;4.63;;;1.30;;
84989;SDS011;75307;53.836;10.476;2024-01-07T05:00:14;3.35;;;0.82;;
84989;SDS011;75307;53.836;10.476;2024-01-07T05:02:16;1.25;;;0.60;;
84989;SDS011;75307;53.836;10.476;2024-01-07T05:04:17;1.90;;;0.93;;
84989;SDS011;75307;53.836;10.476;2024-01-07T05:06:18;2.85;;;1.40;;
84989;SDS011;75307;53.836;10.476;2024-01-07T05:08:22;1.52;;;0.93;;
84989;SDS011;75307;53.836;10.476;2024-01-07T05:10:23;1.70;;;0.70;;
84989;SDS011;75307;53.836;10.476;2024-01-07T05:12:25;1.80;;;0.98;;
84989;SDS011;75307;53.836;10.476;2024-01-07T05:14:27;2.15;;;0.68;;
84989;SDS011;75307;53.836;10.476;2024-01-07T05:16:27;2.20;;;1.65;;
84989;SDS011;75307;53.836;10.476;2024-01-07T05:18:29;3.13;;;1.50;;
84989;SDS011;75307;53.836;10.476;2024-01-07T05:20:31;2.90;;;0.73;;
84989;SDS011;75307;53.836;10.476;2024-01-07T05:22:32;2.92;;;1.00;;
84989;SDS011;75307;53.836;10.476;2024-01-07T05:24:37;2.13;;;1.00;;
84989;SDS011;75307;53.836;10.476;2024-01-07T05:26:39;1.35;;;0.75;;
84989;SDS011;75307;53.836;10.476;2024-01-07T05:28:41;3.50;;;1.00;;
84989;SDS011;75307;53.836;10.476;2024-01-07T05:30:43;2.25;;;0.90;;
84989;SDS011;75307;53.836;10.476;2024-01-07T05:32:45;1.60;;;0.80;;
84989;SDS011;75307;53.836;10.476;2024-01-07T05:34:47;1.55;;;0.75;;
84989;SDS011;75307;53.836;10.476;2024-01-07T05:36:49;3.45;;;1.05;;
84989;SDS011;75307;53.836;10.476;2024-01-07T05:38:50;2.38;;;1.10;;
84989;SDS011;75307;53.836;10.476;2024-01-07T05:40:52;2.97;;;1.10;;
84989;SDS011;75307;53.836;10.476;2024-01-07T05:42:54;5.90;;;1.63;;
84989;SDS011;75307;53.836;10.476;2024-01-07T05:44:56;3.17;;;1.58;;
84989;SDS011;75307;53.836;10.476;2024-01-07T05:46:57;5.47;;;2.58;;
84989;SDS011;75307;53.836;10.476;2024-01-07T05:48:58;3.78;;;1.52;;
84989;SDS011;75307;53.836;10.476;2024-01-07T05:51:01;4.88;;;1.50;;
84989;SDS011;75307;53.836;10.476;2024-01-07T05:53:03;4.40;;;1.45;;
84989;SDS011;75307;53.836;10.476;2024-01-07T05:55:05;3.28;;;1.52;;
84989;SDS011;75307;53.836;10.476;2024-01-07T05:57:08;3.75;;;2.00;;
84989;SDS011;75307;53.836;10.476;2024-01-07T05:59:10;5.63;;;1.90;;
84989;SDS011;75307;53.836;10.476;2024-01-07T06:01:17;2.47;;;1.38;;
84989;SDS011;75307;53.836;10.476;2024-01-07T06:03:20;2.55;;;1.33;;
84989;SDS011;75307;53.836;10.476;2024-01-07T06:05:21;3.40;;;1.63;;
84989;SDS011;75307;53.836;10.476;2024-01-07T06:07:23;4.32;;;1.20;;
84989;SDS011;75307;53.836;10.476;2024-01-07T06:09:24;4.60;;;1.80;;
84989;SDS011;75307;53.836;10.476;2024-01-07T06:11:26;4.10;;;1.50;;
84989;SDS011;75307;53.836;10.476;2024-01-07T06:13:29;3.60;;;1.58;;
84989;SDS011;75307;53.836;10.476;2024-01-07T06:15:31;5.05;;;2.03;;
84989;SDS011;75307;53.836;10.476;2024-01-07T06:17:31;5.57;;;2.42;;
84989;SDS011;75307;53.836;10.476;2024-01-07T06:19:33;2.33;;;1.05;;
84989;SDS011;75307;53.836;10.476;2024-01-07T06:21:35;4.50;;;1.23;;
84989;SDS011;75307;53.836;10.476;2024-01-07T06:23:37;5.60;;;1.63;;
84989;SDS011;75307;53.836;10.476;2024-01-07T06:25:38;5.47;;;2.00;;
84989;SDS011;75307;53.836;10.476;2024-01-07T06:27:40;4.10;;;1.15;;
84989;SDS011;75307;53.836;10.476;2024-01-07T06:29:44;6.72;;;2.38;;
84989;SDS011;75307;53.836;10.476;2024-01-07T06:31:46;2.97;;;1.58;;
84989;SDS011;75307;53.836;10.476;2024-01-07T06:33:48;2.92;;;1.13;;
84989;SDS011;75307;53.836;10.476;2024-01-07T06:35:50;5.57;;;1.63;;
84989;SDS011;75307;53.836;10.476;2024-01-07T06:37:52;4.38;;;1.85;;
84989;SDS011;75307;53.836;10.476;2024-01-07T06:39:53;4.10;;;1.30;;
84989;SDS011;75307;53.836;10.476;2024-01-07T06:41:55;3.53;;;1.58;;
84989;SDS011;75307;53.836;10.476;2024-01-07T06:43:57;3.42;;;2.05;;
84989;SDS011;75307;53.836;10.476;2024-01-07T06:46:00;2.83;;;1.55;;
84989;SDS011;75307;53.836;10.476;2024-01-07T06:48:02;3.65;;;1.63;;
84989;SDS011;75307;53.836;10.476;2024-01-07T06:50:05;6.80;;;2.00;;
84989;SDS011;75307;53.836;10.476;2024-01-07T06:52:07;3.70;;;1.90;;
84989;SDS011;75307;53.836;10.476;2024-01-07T06:54:08;2.45;;;1.30;;
84989;SDS011;75307;53.836;10.476;2024-01-07T06:56:09;4.43;;;1.80;;
84989;SDS011;75307;53.836;10.476;2024-01-07T06:58:11;4.18;;;2.03;;
84989;SDS011;75307;53.836;10.476;2024-01-07T07:00:13;2.83;;;2.22;;
84989;SDS011;75307;53.836;10.476;2024-01-07T07:02:19;4.78;;;1.60;;
84989;SDS011;75307;53.836;10.476;2024-01-07T07:04:22;4.45;;;2.10;;
84989;SDS011;75307;53.836;10.476;2024-01-07T07:06:22;2.55;;;1.27;;
84989;SDS011;75307;53.836;10.476;2024-01-07T07:08:24;4.78;;;1.63;;
84989;SDS011;75307;53.836;10.476;2024-01-07T07:10:27;3.42;;;1.42;;
84989;SDS011;75307;53.836;10.476;2024-01-07T07:12:27;3.70;;;2.08;;
84989;SDS011;75307;53.836;10.476;2024-01-07T07:14:29;4.70;;;1.90;;
84989;SDS011;75307;53.836;10.476;2024-01-07T07:16:30;4.32;;;2.13;;
84989;SDS011;75307;53.836;10.476;2024-01-07T07:18:33;4.80;;;2.35;;
84989;SDS011;75307;53.836;10.476;2024-01-07T07:20:33;5.07;;;2.58;;
84989;SDS011;75307;53.836;10.476;2024-01-07T07:22:35;3.63;;;2.35;;
84989;SDS011;75307;53.836;10.476;2024-01-07T07:24:39;2.80;;;1.58;;
84989;SDS011;75307;53.836;10.476;2024-01-07T07:26:42;3.97;;;1.30;;
84989;SDS011;75307;53.836;10.476;2024-01-07T07:28:43;3.90;;;2.22;;
84989;SDS011;75307;53.836;10.476;2024-01-07T07:30:45;5.05;;;1.48;;
84989;SDS011;75307;53.836;10.476;2024-01-07T07:32:47;2.42;;;1.55;;
84989;SDS011;75307;53.836;10.476;2024-01-07T07:34:50;6.78;;;2.10;;
84989;SDS011;75307;53.836;10.476;2024-01-07T07:36:51;4.15;;;2.05;;
84989;SDS011;75307;53.836;10.476;2024-01-07T07:38:53;4.40;;;2.05;;
84989;SDS011;75307;53.836;10.476;2024-01-07T07:40:55;4.13;;;2.08;;
84989;SDS011;75307;53.836;10.476;2024-01-07T07:42:56;6.55;;;1.63;;
84989;SDS011;75307;53.836;10.476;2024-01-07T07:44:58;1.88;;;1.25;;
84989;SDS011;75307;53.836;10.476;2024-01-07T07:47:00;3.17;;;1.60;;
84989;SDS011;75307;53.836;10.476;2024-01-07T07:49:02;2.95;;;2.00;;
84989;SDS011;75307;53.836;10.476;2024-01-07T07:51:04;4.43;;;1.60;;
84989;SDS011;75307;53.836;10.476;2024-01-07T07:53:06;3.60;;;1.85;;
84989;SDS011;75307;53.836;10.476;2024-01-07T07:55:08;3.33;;;1.50;;
84989;SDS011;75307;53.836;10.476;2024-01-07T07:57:10;3.28;;;1.35;;
84989;SDS011;75307;53.836;10.476;2024-01-07T07:59:10;2.65;;;0.98;;
84989;SDS011;75307;53.836;10.476;2024-01-07T08:01:12;2.90;;;1.10;;
84989;SDS011;75307;53.836;10.476;2024-01-07T08:03:14;4.25;;;1.25;;
84989;SDS011;75307;53.836;10.476;2024-01-07T08:05:16;3.80;;;1.50;;
84989;SDS011;75307;53.836;10.476;2024-01-07T08:07:19;1.58;;;1.10;;
84989;SDS011;75307;53.836;10.476;2024-01-07T08:09:21;1.45;;;1.00;;
84989;SDS011;75307;53.836;10.476;2024-01-07T08:11:25;2.15;;;0.82;;
84989;SDS011;75307;53.836;10.476;2024-01-07T08:13:26;2.90;;;1.10;;
84989;SDS011;75307;53.836;10.476;2024-01-07T08:15:28;2.67;;;1.48;;
84989;SDS011;75307;53.836;10.476;2024-01-07T08:17:30;2.35;;;1.63;;
84989;SDS011;75307;53.836;10.476;2024-01-07T08:19:32;2.33;;;1.02;;
84989;SDS011;75307;53.836;10.476;2024-01-07T08:21:33;3.40;;;1.35;;
84989;SDS011;75307;53.836;10.476;2024-01-07T08:23:37;2.20;;;1.20;;
84989;SDS011;75307;53.836;10.476;2024-01-07T08:25:38;2.35;;;0.85;;
84989;SDS011;75307;53.836;10.476;2024-01-07T08:27:41;3.13;;;1.45;;
84989;SDS011;75307;53.836;10.476;2024-01-07T08:29:44;2.90;;;1.33;;
84989;SDS011;75307;53.836;10.476;2024-01-07T08:31:45;3.60;;;1.10;;
84989;SDS011;75307;53.836;10.476;2024-01-07T08:33:47;2.60;;;1.10;;
84989;SDS011;75307;53.836;10.476;2024-01-07T08:35:49;4.18;;;1.08;;
84989;SDS011;75307;53.836;10.476;2024-01-07T08:37:50;2.45;;;1.17;;
84989;SDS011;75307;53.836;10.476;2024-01-07T08:39:53;2.33;;;1.20;;
84989;SDS011;75307;53.836;10.476;2024-01-07T08:41:54;3.38;;;1.77;;
84989;SDS011;75307;53.836;10.476;2024-01-07T08:43:56;4.18;;;1.15;;
84989;SDS011;75307;53.836;10.476;2024-01-07T08:45:58;5.78;;;1.33;;
84989;SDS011;75307;53.836;10.476;2024-01-07T08:47:59;2.80;;;0.98;;
84989;SDS011;75307;53.836;10.476;2024-01-07T08:50:00;3.70;;;1.33;;
84989;SDS011;75307;53.836;10.476;2024-01-07T08:52:03;2.88;;;1.05;;
84989;SDS011;75307;53.836;10.476;2024-01-07T08:54:05;2.88;;;1.10;;
84989;SDS011;75307;53.836;10.476;2024-01-07T08:56:08;4.78;;;1.70;;
84989;SDS011;75307;53.836;10.476;2024-01-07T08:58:10;4.15;;;1.23;;
84989;SDS011;75307;53.836;10.476;2024-01-07T09:00:12;2.92;;;1.70;;
84989;SDS011;75307;53.836;10.476;2024-01-07T09:02:14;4.50;;;1.40;;
84989;SDS011;75307;53.836;10.476;2024-01-07T09:04:15;2.70;;;1.50;;
84989;SDS011;75307;53.836;10.476;2024-01-07T09:06:17;3.72;;;1.58;;
84989;SDS011;75307;53.836;10.476;2024-01-07T09:08:19;2.65;;;1.60;;
84989;SDS011;75307;53.836;10.476;2024-01-07T09:10:21;1.98;;;1.48;;
84989;SDS011;75307;53.836;10.476;2024-01-07T09:12:26;2.97;;;1.55;;
84989;SDS011;75307;53.836;10.476;2024-01-07T09:14:28;3.55;;;1.50;;
84989;SDS011;75307;53.836;10.476;2024-01-07T09:16:30;1.95;;;0.90;;
84989;SDS011;75307;53.836;10.476;2024-01-07T09:18:31;3.25;;;1.17;;
84989;SDS011;75307;53.836;10.476;2024-01-07T09:20:33;3.00;;;1.42;;
84989;SDS011;75307;53.836;10.476;2024-01-07T09:22:35;3.13;;;1.60;;
84989;SDS011;75307;53.836;10.476;2024-01-07T09:24:37;3.72;;;1.70;;
84989;SDS011;75307;53.836;10.476;2024-01-07T09:26:38;6.10;;;2.10;;
84989;SDS011;75307;53.836;10.476;2024-01-07T09:28:41;2.42;;;1.05;;
84989;SDS011;75307;53.836;10.476;2024-01-07T09:30:44;2.15;;;1.80;;
84989;SDS011;75307;53.836;10.476;2024-01-07T09:32:45;3.25;;;1.38;;
84989;SDS011;75307;53.836;10.476;2024-01-07T09:34:47;2.25;;;1.50;;
84989;SDS011;75307;53.836;10.476;2024-01-07T09:36:49;3.92;;;1.60;;
84989;SDS011;75307;53.836;10.476;2024-01-07T09:38:50;5.70;;;1.92;;
84989;SDS011;75307;53.836;10.476;2024-01-07T09:40:53;3.38;;;1.38;;
84989;SDS011;75307;53.836;10.476;2024-01-07T09:42:55;4.68;;;2.05;;
84989;SDS011;75307;53.836;10.476;2024-01-07T09:44:58;3.90;;;2.25;;
84989;SDS011;75307;53.836;10.476;2024-01-07T09:47:03;4.90;;;2.40;;
84989;SDS011;75307;53.836;10.476;2024-01-07T09:49:06;2.58;;;1.98;;
84989;SDS011;75307;53.836;10.476;2024-01-07T09:51:09;5.55;;;2.85;;
84989;SDS011;75307;53.836;10.476;2024-01-07T09:53:14;5.90;;;3.03;;
84989;SDS011;75307;53.836;10.476;2024-01-07T09:55:18;6.07;;;3.25;;
84989;SDS011;75307;53.836;10.476;2024-01-07T09:57:27;3.75;;;2.63;;
84989;SDS011;75307;53.836;10.476;2024-01-07T09:59:29;5.93;;;2.92;;
84989;SDS011;75307;53.836;10.476;2024-01-07T10:01:33;4.95;;;2.25;;
84989;SDS011;75307;53.836;10.476;2024-01-07T10:03:35;4.95;;;2.50;;
84989;SDS011;75307;53.836;10.476;2024-01-07T10:05:37;3.38;;;2.65;;
84989;SDS011;75307;53.836;10.476;2024-01-07T10:07:39;5.43;;;2.10;;
84989;SDS011;75307;53.836;10.476;2024-01-07T10:09:41;5.55;;;2.60;;
84989;SDS011;75307;53.836;10.476;2024-01-07T10:11:43;8.55;;;4.30;;
84989;SDS011;75307;53.836;10.476;2024-01-07T10:13:45;5.78;;;3.22;;
84989;SDS011;75307;53.836;10.476;2024-01-07T10:15:48;5.03;;;2.50;;
84989;SDS011;75307;53.836;10.476;2024-01-07T10:17:52;3.65;;;2.10;;
84989;SDS011;75307;53.836;10.476;2024-01-07T10:19:56;5.35;;;2.55;;
84989;SDS011;75307;53.836;10.476;2024-01-07T10:21:58;5.40;;;2.70;;
84989;SDS011;75307;53.836;10.476;2024-01-07T10:24:07;4.35;;;2.08;;
84989;SDS011;75307;53.836;10.476;2024-01-07T10:26:10;4.70;;;2.42;;
84989;SDS011;75307;53.836;10.476;2024-01-07T10:28:11;4.10;;;2.20;;
84989;SDS011;75307;53.836;10.476;2024-01-07T10:30:15;4.88;;;2.72;;
84989;SDS011;75307;53.836;10.476;2024-01-07T10:32:17;4.13;;;2.25;;
84989;SDS011;75307;53.836;10.476;2024-01-07T10:34:22;4.53;;;2.17;;
84989;SDS011;75307;53.836;10.476;2024-01-07T10:36:25;3.55;;;2.03;;
84989;SDS011;75307;53.836;10.476;2024-01-07T10:38:27;5.65;;;2.72;;
84989;SDS011;75307;53.836;10.476;2024-01-07T10:40:28;3.60;;;2.20;;
84989;SDS011;75307;53.836;10.476;2024-01-07T10:42:31;3.88;;;2.05;;
84989;SDS011;75307;53.836;10.476;2024-01-07T10:44:34;4.45;;;2.45;;
84989;SDS011;75307;53.836;10.476;2024-01-07T10:46:35;5.80;;;3.80;;
84989;SDS011;75307;53.836;10.476;2024-01-07T10:48:41;4.90;;;3.60;;
84989;SDS011;75307;53.836;10.476;2024-01-07T10:50:53;3.50;;;2.13;;
84989;SDS011;75307;53.836;10.476;2024-01-07T10:52:58;4.07;;;1.90;;
84989;SDS011;75307;53.836;10.476;2024-01-07T10:55:07;5.28;;;2.70;;
84989;SDS011;75307;53.836;10.476;2024-01-07T10:57:12;7.13;;;3.83;;
84989;SDS011;75307;53.836;10.476;2024-01-07T10:59:18;5.70;;;2.78;;
84989;SDS011;75307;53.836;10.476;2024-01-07T11:01:21;4.00;;;2.90;;
84989;SDS011;75307;53.836;10.476;2024-01-07T11:03:25;8.52;;;2.05;;
84989;SDS011;75307;53.836;10.476;2024-01-07T11:05:34;2.67;;;1.73;;
84989;SDS011;75307;53.836;10.476;2024-01-07T11:07:45;3.65;;;2.10;;
84989;SDS011;75307;53.836;10.476;2024-01-07T11:09:53;2.88;;;1.52;;
84989;SDS011;75307;53.836;10.476;2024-01-07T11:16:43;4.63;;;1.17;;
84989;SDS011;75307;53.836;10.476;2024-01-07T11:18:45;3.70;;;2.42;;
84989;SDS011;75307;53.836;10.476;2024-01-07T11:20:51;2.08;;;1.20;;
84989;SDS011;75307;53.836;10.476;2024-01-07T11:22:59;3.38;;;1.10;;
84989;SDS011;75307;53.836;10.476;2024-01-07T11:25:33;1.55;;;0.85;;
84989;SDS011;75307;53.836;10.476;2024-01-07T11:27:39;2.20;;;1.40;;
84989;SDS011;75307;53.836;10.476;2024-01-07T11:29:42;2.75;;;0.90;;
84989;SDS011;75307;53.836;10.476;2024-01-07T11:31:44;2.47;;;1.02;;
84989;SDS011;75307;53.836;10.476;2024-01-07T11:33:48;3.38;;;1.75;;
84989;SDS011;75307;53.836;10.476;2024-01-07T11:35:53;7.82;;;1.70;;
84989;SDS011;75307;53.836;10.476;2024-01-07T11:37:56;2.22;;;1.30;;
84989;SDS011;75307;53.836;10.476;2024-01-07T11:39:59;3.17;;;1.50;;
84989;SDS011;75307;53.836;10.476;2024-01-07T11:42:01;1.67;;;0.80;;
84989;SDS011;75307;53.836;10.476;2024-01-07T11:44:05;4.85;;;1.60;;
84989;SDS011;75307;53.836;10.476;2024-01-07T11:46:07;4.25;;;1.40;;
84989;SDS011;75307;53.836;10.476;2024-01-07T11:48:08;2.97;;;2.00;;
84989;SDS011;75307;53.836;10.476;2024-01-07T11:50:09;3.83;;;2.28;;
84989;SDS011;75307;53.836;10.476;2024-01-07T11:52:11;8.57;;;3.20;;
84989;SDS011;75307;53.836;10.476;2024-01-07T11:54:13;6.15;;;2.92;;
84989;SDS011;75307;53.836;10.476;2024-01-07T11:56:16;2.58;;;0.90;;
84989;SDS011;75307;53.836;10.476;2024-01-07T11:58:18;2.55;;;1.48;;
84989;SDS011;75307;53.836;10.476;2024-01-07T12:00:20;2.60;;;2.30;;
84989;SDS011;75307;53.836;10.476;2024-01-07T12:02:23;3.08;;;1.85;;
84989;SDS011;75307;53.836;10.476;2024-01-07T12:04:30;2.45;;;1.77;;
84989;SDS011;75307;53.836;10.476;2024-01-07T12:06:31;2.50;;;1.30;;
84989;SDS011;75307;53.836;10.476;2024-01-07T12:08:33;1.63;;;0.80;;
84989;SDS011;75307;53.836;10.476;2024-01-07T12:10:35;5.35;;;1.52;;